Time;durP1;ratioP1;P1;durP2;ratioP2;P2;SDS_P1;SDS_P2;PMS_P1;PMS_P2;Temp;Humidity;BMP_temperature;BMP_pressure;BME280_temperature;BME280_humidity;BME280_pressure;Samples;Min_cycle;Max_cycle;Signal;HPM_P1;HPM_P2
2023/06/22 00:00:32;;;;;;;15.98;13.15;;;22.40;70.60;;;;;;5037118;28;20326;-82
2023/06/22 00:02:58;;;;;;;14.75;12.43;;;22.40;70.60;;;;;;5020877;28;20553;-83
2023/06/22 00:05:24;;;;;;;14.68;12.65;;;22.40;70.70;;;;;;5020634;28;20261;-82
2023/06/22 00:07:50;;;;;;;14.35;12.77;;;22.30;70.60;;;;;;5037349;28;20154;-82
2023/06/22 00:10:16;;;;;;;14.55;12.73;;;22.40;70.60;;;;;;5037254;28;20162;-82
2023/06/22 00:12:42;;;;;;;14.00;12.50;;;22.40;70.70;;;;;;5036980;28;20173;-83
2023/06/22 00:15:08;;;;;;;14.18;12.48;;;22.40;70.70;;;;;;5054619;28;20194;-83
2023/06/22 00:17:34;;;;;;;14.27;12.35;;;22.30;70.60;;;;;;5054748;28;20193;-83
2023/06/22 00:20:00;;;;;;;14.27;12.80;;;22.40;70.80;;;;;;5054644;28;20489;-83
2023/06/22 00:22:28;;;;;;;14.60;13.05;;;22.40;70.80;;;;;;5037144;28;20169;-83
2023/06/22 00:24:55;;;;;;;17.13;12.43;;;22.40;70.90;;;;;;5054364;28;20155;-83
2023/06/22 00:27:21;;;;;;;15.13;12.70;;;22.40;70.80;;;;;;5036590;28;20181;-83
2023/06/22 00:29:47;;;;;;;13.70;12.25;;;22.30;70.70;;;;;;5036852;28;20170;-83
2023/06/22 00:32:13;;;;;;;13.60;11.65;;;22.30;70.80;;;;;;5019993;28;20254;-83
2023/06/22 00:34:39;;;;;;;13.23;11.82;;;22.30;70.90;;;;;;5020555;28;20224;-83
2023/06/22 00:37:05;;;;;;;14.05;12.63;;;22.30;70.90;;;;;;5054462;28;20679;-83
2023/06/22 00:39:32;;;;;;;14.85;12.55;;;22.30;70.90;;;;;;5036449;28;20177;-83
2023/06/22 00:41:59;;;;;;;13.95;12.07;;;22.30;70.90;;;;;;5036937;28;20221;-83
2023/06/22 00:44:25;;;;;;;14.48;12.57;;;22.30;70.80;;;;;;5036375;28;20163;-83
2023/06/22 00:46:51;;;;;;;13.90;12.43;;;22.30;70.90;;;;;;5019764;28;20540;-82
2023/06/22 00:49:17;;;;;;;14.10;12.65;;;22.40;70.90;;;;;;5036022;28;20253;-83
2023/06/22 00:51:45;;;;;;;14.32;12.77;;;22.40;70.80;;;;;;5036250;28;20182;-82
2023/06/22 00:54:13;;;;;;;14.43;12.88;;;22.30;70.80;;;;;;5036163;28;20174;-82
2023/06/22 00:56:40;;;;;;;13.70;12.27;;;22.30;70.80;;;;;;5036313;28;20206;-83
2023/06/22 00:59:06;;;;;;;14.18;12.23;;;22.30;70.80;;;;;;5019528;28;20265;-82
2023/06/22 01:01:34;;;;;;;13.48;12.05;;;22.30;70.80;;;;;;5036045;28;20257;-83
2023/06/22 01:04:00;;;;;;;15.02;12.63;;;22.30;70.80;;;;;;5036781;28;20544;-83
2023/06/22 01:06:29;;;;;;;14.18;12.68;;;22.30;70.90;;;;;;5036035;28;20601;-84
2023/06/22 01:09:06;;;;;;;14.98;13.25;;;22.30;70.90;;;;;;5036028;28;20598;-83
2023/06/22 01:11:36;;;;;;;13.35;11.80;;;22.30;70.90;;;;;;5036202;28;20162;-83
2023/06/22 01:14:17;;;;;;;14.52;13.02;;;22.30;71.00;;;;;;5035874;28;20170;-83
2023/06/22 01:16:43;;;;;;;14.35;12.52;;;22.30;70.90;;;;;;5053612;28;20182;-83
2023/06/22 01:19:41;;;;;;;14.82;12.95;;;22.30;71.00;;;;;;5019263;28;20220;-83
2023/06/22 01:22:12;;;;;;;14.57;13.00;;;22.30;70.90;;;;;;5039404;28;20170;-83
2023/06/22 01:24:54;;;;;;;14.13;12.63;;;22.30;71.00;;;;;;5020305;28;20170;-82
2023/06/22 01:27:30;;;;;;;13.82;11.95;;;22.30;71.00;;;;;;5035963;28;20162;-83
2023/06/22 01:30:00;;;;;;;14.23;12.73;;;22.30;71.10;;;;;;5019070;28;20177;-83
2023/06/22 01:32:32;;;;;;;15.02;13.07;;;22.30;71.00;;;;;;5036072;28;20561;-83
2023/06/22 01:35:00;;;;;;;14.40;12.25;;;22.30;71.90;;;;;;5035377;28;20203;-82
2023/06/22 01:37:27;;;;;;;14.43;12.85;;;22.30;71.00;;;;;;5053250;28;20186;-83
2023/06/22 01:39:53;;;;;;;14.20;12.70;;;22.30;71.10;;;;;;5035796;28;20178;-82
2023/06/22 01:42:19;;;;;;;13.80;12.40;;;22.30;71.10;;;;;;5035979;28;20657;-84
2023/06/22 01:44:45;;;;;;;14.52;13.00;;;22.30;71.10;;;;;;5035717;28;20178;-82
2023/06/22 01:47:13;;;;;;;14.30;12.57;;;22.30;71.10;;;;;;5053277;28;20621;-83
2023/06/22 01:49:40;;;;;;;15.18;13.55;;;22.20;71.10;;;;;;5035720;28;20178;-83
2023/06/22 01:52:06;;;;;;;14.23;12.75;;;22.20;71.10;;;;;;5053050;28;20154;-83
2023/06/22 01:54:32;;;;;;;15.13;12.68;;;22.20;71.10;;;;;;5051727;28;20169;-83
2023/06/22 01:56:58;;;;;;;12.77;11.48;;;22.20;71.10;;;;;;5035073;28;20193;-83
2023/06/22 01:59:29;;;;;;;14.15;12.65;;;22.20;71.00;;;;;;5035057;28;20169;-83
2023/06/22 02:02:02;;;;;;;14.18;12.68;;;22.20;71.10;;;;;;5035113;28;20189;-83
2023/06/22 02:04:39;;;;;;;14.23;12.73;;;22.20;71.20;;;;;;5035140;28;20249;-83
2023/06/22 02:07:16;;;;;;;14.32;12.75;;;22.20;71.20;;;;;;5018650;28;20165;-83
2023/06/22 02:09:44;;;;;;;13.52;12.13;;;22.20;71.20;;;;;;5035691;28;20162;-82
2023/06/22 02:12:10;;;;;;;14.27;12.40;;;22.20;71.10;;;;;;5018506;28;20200;-83
2023/06/22 02:14:36;;;;;;;14.35;12.85;;;22.20;71.20;;;;;;5018886;28;20169;-82
2023/06/22 02:17:02;;;;;;;14.60;12.88;;;22.10;71.20;;;;;;5018545;28;20240;-83
2023/06/22 02:19:33;;;;;;;14.27;12.77;;;22.20;71.30;;;;;;5018787;28;20629;-83
2023/06/22 02:21:58;;;;;;;13.93;12.45;;;22.20;71.20;;;;;;5053079;28;20150;-83
2023/06/22 02:24:24;;;;;;;14.20;12.70;;;22.20;71.40;;;;;;5052782;28;20237;-83
2023/06/22 02:26:50;;;;;;;14.32;12.73;;;22.20;71.40;;;;;;5051461;28;20170;-83
2023/06/22 02:29:17;;;;;;;13.85;12.35;;;22.20;71.40;;;;;;5052691;28;20228;-83
2023/06/22 02:31:43;;;;;;;15.43;12.27;;;22.20;71.40;;;;;;5052638;28;20150;-83
2023/06/22 02:34:09;;;;;;;14.05;12.55;;;22.10;71.30;;;;;;5051709;28;20215;-83
2023/06/22 02:36:35;;;;;;;13.77;12.27;;;22.20;71.40;;;;;;5052691;28;20186;-83
2023/06/22 02:39:01;;;;;;;14.27;12.10;;;22.10;71.30;;;;;;5052951;28;20150;-83
2023/06/22 02:41:27;;;;;;;15.90;12.75;;;22.20;71.40;;;;;;5051380;28;20566;-83
2023/06/22 02:43:53;;;;;;;15.65;13.20;;;22.20;71.30;;;;;;5051422;28;20170;-84
2023/06/22 02:46:19;;;;;;;14.45;12.68;;;22.20;72.00;;;;;;5034567;28;20529;-83
2023/06/22 02:48:45;;;;;;;14.52;13.00;;;22.20;71.20;;;;;;5040803;28;20222;-83
2023/06/22 02:51:11;;;;;;;14.48;12.98;;;22.20;71.30;;;;;;5018794;28;20261;-83
2023/06/22 02:53:37;;;;;;;15.18;13.57;;;22.20;71.40;;;;;;5002257;28;20186;-82
2023/06/22 02:56:05;;;;;;;13.82;12.32;;;22.10;71.30;;;;;;5018536;28;20650;-83
2023/06/22 02:58:38;;;;;;;13.65;12.25;;;22.10;71.40;;;;;;5002776;28;20582;-83
2023/06/22 03:01:05;;;;;;;13.88;12.48;;;22.10;71.30;;;;;;5036276;28;20214;-83
2023/06/22 03:03:31;;;;;;;13.63;12.18;;;22.20;71.40;;;;;;5019048;28;20622;-83
2023/06/22 03:05:57;;;;;;;13.90;12.43;;;22.10;71.30;;;;;;5018752;28;20537;-83
2023/06/22 03:08:23;;;;;;;14.05;12.57;;;22.20;72.20;;;;;;5036075;28;20163;-83
2023/06/22 03:10:49;;;;;;;14.15;12.65;;;22.10;71.30;;;;;;5018726;28;20155;-83
2023/06/22 03:13:16;;;;;;;15.23;13.23;;;22.10;71.30;;;;;;5036085;28;20155;-83
2023/06/22 03:15:42;;;;;;;14.60;13.00;;;22.10;71.40;;;;;;5035738;28;20182;-83
2023/06/22 03:18:08;;;;;;;14.63;13.00;;;22.10;71.40;;;;;;5018245;28;20604;-83
2023/06/22 03:20:34;;;;;;;15.43;13.05;;;22.10;71.30;;;;;;5018769;28;20189;-82
2023/06/22 03:23:00;;;;;;;14.38;12.57;;;22.10;71.40;;;;;;5018200;28;20159;-83
2023/06/22 03:25:26;;;;;;;13.82;12.35;;;22.10;71.40;;;;;;5018130;28;20178;-83
2023/06/22 03:27:52;;;;;;;14.02;12.52;;;22.10;71.40;;;;;;5018371;28;20170;-83
2023/06/22 03:30:18;;;;;;;15.05;12.95;;;22.10;71.30;;;;;;5018089;28;20606;-83
2023/06/22 03:32:44;;;;;;;14.77;13.18;;;22.10;71.40;;;;;;5018055;28;20178;-83
2023/06/22 03:35:12;;;;;;;14.05;12.32;;;22.10;71.40;;;;;;5001473;28;20174;-82
2023/06/22 03:37:38;;;;;;;14.35;12.30;;;22.20;71.40;;;;;;5018696;28;20178;-83
2023/06/22 03:40:05;;;;;;;14.63;12.93;;;22.10;71.30;;;;;;5018475;28;20579;-82
2023/06/22 03:42:31;;;;;;;15.10;12.57;;;22.10;71.50;;;;;;5035356;28;20158;-83
2023/06/22 03:44:57;;;;;;;13.93;12.43;;;22.20;71.50;;;;;;5035784;28;20518;-83
2023/06/22 03:47:23;;;;;;;15.85;13.65;;;22.10;71.40;;;;;;5037848;28;20206;-83
2023/06/22 03:49:49;;;;;;;14.85;13.02;;;22.10;71.40;;;;;;5021154;28;20178;-83
2023/06/22 03:52:16;;;;;;;14.52;12.55;;;22.10;71.50;;;;;;5037840;28;20179;-83
2023/06/22 03:54:42;;;;;;;14.13;12.63;;;22.10;71.50;;;;;;5037347;28;20166;-83
2023/06/22 03:57:08;;;;;;;14.52;12.82;;;22.10;71.40;;;;;;5055277;28;20209;-83
2023/06/22 03:59:34;;;;;;;14.75;12.77;;;22.10;71.40;;;;;;5036765;28;20159;-83
2023/06/22 04:02:00;;;;;;;15.25;13.07;;;22.10;71.60;;;;;;5037822;28;20146;-83
2023/06/22 04:04:26;;;;;;;14.48;12.80;;;22.10;71.60;;;;;;5037482;28;20166;-82
2023/06/22 04:06:52;;;;;;;14.35;12.32;;;22.00;71.50;;;;;;5054944;28;20158;-83
2023/06/22 04:09:18;;;;;;;14.68;12.50;;;22.10;71.60;;;;;;5054904;28;20666;-83
2023/06/22 04:11:44;;;;;;;14.20;12.70;;;22.10;71.50;;;;;;5021063;28;20216;-83
2023/06/22 04:14:10;;;;;;;14.55;12.98;;;22.10;71.60;;;;;;5037075;28;20527;-83
2023/06/22 04:16:36;;;;;;;14.52;12.63;;;22.10;72.40;;;;;;5037028;28;20185;-83
2023/06/22 04:19:02;;;;;;;14.55;12.82;;;22.10;71.60;;;;;;5037060;28;20170;-83
2023/06/22 04:21:28;;;;;;;14.95;12.80;;;22.10;71.60;;;;;;5054708;28;20263;-83
2023/06/22 04:23:54;;;;;;;14.10;12.65;;;22.10;71.60;;;;;;5054871;28;20513;-83
2023/06/22 04:26:20;;;;;;;14.77;12.88;;;22.10;71.50;;;;;;5036612;28;20169;-83
2023/06/22 04:28:51;;;;;;;14.32;12.82;;;22.10;71.50;;;;;;5036944;28;20161;-83
2023/06/22 04:31:18;;;;;;;14.60;12.98;;;22.10;71.60;;;;;;5054531;28;20617;-83
2023/06/22 04:33:45;;;;;;;14.25;12.75;;;22.10;71.60;;;;;;5054544;28;20154;-83
2023/06/22 04:36:13;;;;;;;14.82;13.18;;;22.10;72.50;;;;;;5036644;28;20192;-83
2023/06/22 04:38:39;;;;;;;15.02;13.07;;;22.10;71.60;;;;;;5054430;28;20185;-84
2023/06/22 04:41:06;;;;;;;15.15;13.55;;;22.10;71.60;;;;;;5054449;28;20151;-83
2023/06/22 04:43:33;;;;;;;14.63;12.60;;;22.10;71.60;;;;;;5037169;28;20186;-83
2023/06/22 04:46:03;;;;;;;14.95;13.35;;;22.10;71.70;;;;;;5036633;28;20208;-83
2023/06/22 04:48:32;;;;;;;14.60;13.07;;;22.00;71.70;;;;;;5036146;28;20214;-83
2023/06/22 04:51:03;;;;;;;14.63;13.02;;;22.10;71.70;;;;;;5036802;28;20170;-83
2023/06/22 04:53:30;;;;;;;14.77;13.18;;;22.10;71.60;;;;;;5037006;28;20208;-83
2023/06/22 04:55:56;;;;;;;14.60;13.05;;;22.10;71.60;;;;;;5019734;28;20158;-83
2023/06/22 04:58:22;;;;;;;14.68;12.98;;;22.10;71.60;;;;;;5019741;28;20162;-83
2023/06/22 05:00:48;;;;;;;14.32;12.55;;;22.10;71.50;;;;;;5036065;28;20200;-83
2023/06/22 05:03:13;;;;;;;14.48;12.90;;;22.10;71.60;;;;;;5054075;28;20179;-83
2023/06/22 05:05:39;;;;;;;14.23;12.73;;;22.10;71.50;;;;;;5036229;28;20216;-83
2023/06/22 05:08:06;;;;;;;14.43;12.93;;;22.10;71.60;;;;;;5035996;28;20161;-83
2023/06/22 05:10:33;;;;;;;14.50;13.00;;;22.10;71.50;;;;;;5052968;28;20157;-83
2023/06/22 05:12:59;;;;;;;14.35;12.82;;;22.10;71.30;;;;;;5035968;28;20565;-83
2023/06/22 05:15:30;;;;;;;14.30;12.80;;;22.20;71.30;;;;;;5053658;28;20300;-83
2023/06/22 05:17:56;;;;;;;13.43;12.00;;;22.20;71.40;;;;;;5053847;28;20319;-83
2023/06/22 05:20:22;;;;;;;13.85;12.45;;;22.20;71.10;;;;;;5035815;28;20245;-83
2023/06/22 05:22:48;;;;;;;14.35;12.55;;;22.20;71.10;;;;;;5019255;28;20170;-83
2023/06/22 05:25:14;;;;;;;14.13;12.57;;;22.20;71.00;;;;;;5035805;28;20160;-83
2023/06/22 05:27:40;;;;;;;14.77;12.27;;;22.20;70.90;;;;;;5053551;28;20612;-83
2023/06/22 05:30:06;;;;;;;14.23;12.63;;;22.20;71.00;;;;;;5053407;28;20158;-84
2023/06/22 05:32:33;;;;;;;13.80;12.40;;;22.30;71.00;;;;;;5053427;28;20213;-83
2023/06/22 05:34:59;;;;;;;12.98;11.65;;;22.20;70.90;;;;;;5035688;28;20158;-83
2023/06/22 05:37:25;;;;;;;13.40;12.00;;;22.30;70.90;;;;;;5035716;28;20209;-84
2023/06/22 05:39:51;;;;;;;12.45;11.15;;;22.30;71.00;;;;;;5035438;28;20162;-83
2023/06/22 05:42:17;;;;;;;11.48;10.27;;;22.30;71.00;;;;;;5035391;28;20216;-83
2023/06/22 05:44:43;;;;;;;11.98;10.77;;;22.30;71.20;;;;;;5035423;28;20166;-83
2023/06/22 05:47:09;;;;;;;12.82;11.30;;;22.30;70.90;;;;;;5019298;28;20560;-83
2023/06/22 05:49:35;;;;;;;10.82;9.68;;;22.40;70.80;;;;;;5019403;28;20185;-85
2023/06/22 05:52:01;;;;;;;11.90;10.70;;;22.30;70.60;;;;;;5035812;28;20178;-83
2023/06/22 05:54:28;;;;;;;11.75;10.32;;;22.40;70.60;;;;;;5036033;28;20193;-83
2023/06/22 05:56:54;;;;;;;10.48;9.45;;;22.40;70.20;;;;;;5035551;28;20185;-83
2023/06/22 05:59:20;;;;;;;10.25;9.18;;;22.50;70.00;;;;;;5018711;28;20166;-83
2023/06/22 06:01:49;;;;;;;10.48;9.38;;;22.50;70.10;;;;;;5053042;28;20150;-83
2023/06/22 06:04:17;;;;;;;10.20;9.07;;;22.40;70.00;;;;;;5036048;28;20257;-84
2023/06/22 06:06:43;;;;;;;10.88;9.38;;;22.40;70.00;;;;;;5035141;28;20166;-83
2023/06/22 06:09:09;;;;;;;11.18;9.98;;;22.50;70.00;;;;;;5035154;28;20173;-83
2023/06/22 06:11:35;;;;;;;9.40;8.48;;;22.40;70.10;;;;;;5035155;28;20320;-84
2023/06/22 06:14:01;;;;;;;9.88;8.88;;;22.50;70.00;;;;;;5018622;28;20178;-83
2023/06/22 06:16:27;;;;;;;10.85;9.75;;;22.50;70.10;;;;;;5035363;28;20193;-83
2023/06/22 06:18:54;;;;;;;10.90;9.80;;;22.60;69.80;;;;;;5052949;28;20625;-83
2023/06/22 06:21:20;;;;;;;10.20;9.10;;;22.60;70.10;;;;;;5036159;28;20229;-83
2023/06/22 06:23:47;;;;;;;10.32;9.23;;;22.60;70.20;;;;;;5039335;28;20584;-83
2023/06/22 06:26:15;;;;;;;10.65;9.20;;;22.50;70.40;;;;;;5022549;28;20176;-83
2023/06/22 06:28:41;;;;;;;10.10;9.10;;;22.50;70.60;;;;;;5038906;28;20699;-83
2023/06/22 06:31:08;;;;;;;9.32;8.43;;;22.50;70.70;;;;;;5039231;28;20258;-83
2023/06/22 06:33:35;;;;;;;10.05;8.85;;;22.60;70.50;;;;;;5039127;28;20178;-83
2023/06/22 06:36:03;;;;;;;9.45;8.55;;;22.50;70.60;;;;;;5022370;28;20170;-83
2023/06/22 06:38:29;;;;;;;9.07;8.18;;;22.50;70.60;;;;;;5056933;28;20298;-81
2023/06/22 06:40:56;;;;;;;9.70;8.70;;;22.50;70.90;;;;;;5038915;28;20150;-82
2023/06/22 06:43:22;;;;;;;9.75;8.77;;;22.50;70.90;;;;;;5039292;28;20158;-84
2023/06/22 06:45:48;;;;;;;9.35;8.45;;;22.40;71.10;;;;;;5038992;28;20166;-84
2023/06/22 06:48:14;;;;;;;9.75;8.70;;;22.40;71.20;;;;;;5038754;28;20325;-82
2023/06/22 06:50:40;;;;;;;8.45;7.53;;;22.40;71.40;;;;;;5038935;28;20197;-82
2023/06/22 06:53:06;;;;;;;9.43;8.50;;;22.50;71.20;;;;;;5056672;28;20215;-82
2023/06/22 06:55:33;;;;;;;10.43;9.35;;;22.50;71.10;;;;;;5056524;28;20162;-82
2023/06/22 06:57:59;;;;;;;11.05;8.25;;;22.50;71.10;;;;;;5038317;28;20197;-81
2023/06/22 07:00:25;;;;;;;8.52;7.60;;;22.40;71.00;;;;;;5038447;28;20172;-82
2023/06/22 07:02:52;;;;;;;9.10;8.20;;;22.50;71.00;;;;;;5056247;28;20579;-82
2023/06/22 07:05:18;;;;;;;8.77;7.88;;;22.50;71.10;;;;;;5038363;28;20560;-82
2023/06/22 07:07:44;;;;;;;9.57;8.50;;;22.40;71.10;;;;;;5021664;28;20280;-82
2023/06/22 07:10:10;;;;;;;8.77;7.88;;;22.40;71.40;;;;;;5021691;28;20640;-82
2023/06/22 07:12:36;;;;;;;8.23;7.43;;;22.40;71.80;;;;;;5038115;28;20241;-82
2023/06/22 07:15:05;;;;;;;9.07;7.95;;;22.40;71.90;;;;;;5056380;28;20158;-81
2023/06/22 07:17:31;;;;;;;7.97;7.18;;;22.40;71.90;;;;;;5056050;28;20178;-82
2023/06/22 07:19:57;;;;;;;8.05;7.25;;;22.40;71.80;;;;;;5055817;28;20259;-82
2023/06/22 07:22:23;;;;;;;7.93;7.13;;;22.40;71.80;;;;;;5022193;28;20166;-82
2023/06/22 07:24:49;;;;;;;7.10;6.40;;;22.40;71.80;;;;;;5021480;28;20166;-82
2023/06/22 07:27:18;;;;;;;7.85;7.05;;;22.40;71.70;;;;;;5037854;28;20195;-82
2023/06/22 07:29:44;;;;;;;7.20;6.50;;;22.40;71.70;;;;;;5022120;28;20166;-82
2023/06/22 07:32:10;;;;;;;7.50;6.72;;;22.40;71.80;;;;;;5055661;28;20208;-82
2023/06/22 07:34:36;;;;;;;7.60;6.80;;;22.30;71.90;;;;;;5020807;28;20166;-83
2023/06/22 07:37:04;;;;;;;6.55;5.93;;;22.30;72.00;;;;;;5055816;28;20186;-82
2023/06/22 07:39:30;;;;;;;7.25;6.55;;;22.30;72.00;;;;;;5055524;28;20150;-81
2023/06/22 07:41:56;;;;;;;7.65;6.85;;;22.40;71.90;;;;;;5037898;28;20493;-82
2023/06/22 07:44:22;;;;;;;7.72;6.82;;;22.30;71.90;;;;;;5038071;28;20233;-81
2023/06/22 07:46:48;;;;;;;7.03;6.32;;;22.30;72.20;;;;;;5037795;28;20158;-82
2023/06/22 07:49:14;;;;;;;7.97;7.18;;;22.20;72.40;;;;;;5055524;28;20699;-81
2023/06/22 07:51:40;;;;;;;7.18;6.47;;;22.10;72.60;;;;;;5055276;28;20158;-81
2023/06/22 07:54:06;;;;;;;7.05;6.35;;;22.10;72.80;;;;;;5037377;28;20257;-82
2023/06/22 07:56:33;;;;;;;7.80;7.00;;;22.00;73.60;;;;;;5037442;28;20618;-81
2023/06/22 07:59:00;;;;;;;7.15;6.45;;;22.00;73.10;;;;;;5055013;28;20146;-81
2023/06/22 08:01:26;;;;;;;7.70;6.90;;;22.00;73.10;;;;;;5037707;28;20162;-81
2023/06/22 08:03:52;;;;;;;6.88;6.18;;;22.00;73.10;;;;;;5020632;28;20191;-82
2023/06/22 08:06:18;;;;;;;8.05;6.90;;;22.00;73.00;;;;;;5037286;28;20154;-82
2023/06/22 08:08:47;;;;;;;8.05;6.40;;;22.10;73.10;;;;;;5037678;28;20174;-82
2023/06/22 08:11:13;;;;;;;8.32;7.43;;;22.10;73.10;;;;;;5037292;28;20166;-82
2023/06/22 08:13:39;;;;;;;8.00;7.07;;;22.10;73.10;;;;;;5054901;28;20520;-82
2023/06/22 08:16:07;;;;;;;7.88;7.05;;;22.10;73.10;;;;;;5055068;28;20157;-82
2023/06/22 08:18:33;;;;;;;7.25;6.55;;;22.10;73.10;;;;;;5020558;28;20204;-82
2023/06/22 08:20:59;;;;;;;8.43;7.53;;;22.00;73.20;;;;;;5020780;28;20612;-81
2023/06/22 08:23:25;;;;;;;7.80;7.00;;;22.10;73.20;;;;;;5036705;28;20169;-81
2023/06/22 08:25:51;;;;;;;8.10;7.30;;;22.10;73.10;;;;;;5037062;28;20158;-82
2023/06/22 08:28:17;;;;;;;7.30;6.55;;;22.10;73.00;;;;;;5036776;28;20233;-81
2023/06/22 08:30:43;;;;;;;8.82;7.07;;;22.20;72.90;;;;;;5036715;28;20178;-82
2023/06/22 08:33:09;;;;;;;8.90;7.20;;;22.20;72.80;;;;;;5019955;28;20197;-82
2023/06/22 08:35:34;;;;;;;17.10;7.40;;;22.20;72.80;;;;;;5025246;28;20213;-81
2023/06/22 08:38:01;;;;;;;17.88;7.82;;;22.20;72.80;;;;;;5016496;28;20201;-81
2023/06/22 08:40:29;;;;;;;8.48;6.53;;;22.20;72.80;;;;;;5035691;28;20178;-81
2023/06/22 08:42:54;;;;;;;8.32;6.68;;;22.20;72.60;;;;;;5036635;28;20150;-81
2023/06/22 08:45:20;;;;;;;10.25;7.05;;;22.20;72.70;;;;;;5036319;28;20162;-80
2023/06/22 08:47:46;;;;;;;7.90;7.10;;;22.20;73.60;;;;;;5020060;28;20304;-81
2023/06/22 08:50:12;;;;;;;7.97;6.55;;;22.20;72.60;;;;;;5036411;28;20616;-81
2023/06/22 08:52:41;;;;;;;7.60;6.65;;;22.20;72.50;;;;;;5054066;28;20154;-81
2023/06/22 08:55:08;;;;;;;7.78;6.97;;;22.20;72.50;;;;;;5020441;28;20204;-81
2023/06/22 08:57:34;;;;;;;9.45;6.93;;;22.20;72.50;;;;;;5036024;28;20193;-82
2023/06/22 09:00:00;;;;;;;8.05;7.10;;;22.30;72.50;;;;;;5054064;28;20527;-82
2023/06/22 09:02:30;;;;;;;7.20;6.50;;;22.20;72.50;;;;;;5036648;28;20514;-81
2023/06/22 09:04:57;;;;;;;8.02;6.95;;;22.30;72.30;;;;;;5020102;28;20166;-81
2023/06/22 09:07:24;;;;;;;7.90;6.43;;;22.30;72.10;;;;;;5036205;28;20158;-81
2023/06/22 09:09:50;;;;;;;7.20;6.45;;;22.30;72.00;;;;;;5036104;28;20158;-80
2023/06/22 09:12:17;;;;;;;7.60;6.80;;;22.40;72.00;;;;;;5036840;28;20276;-81
2023/06/22 09:14:43;;;;;;;7.72;6.78;;;22.40;72.00;;;;;;5036634;28;20204;-80
2023/06/22 09:17:09;;;;;;;6.40;5.68;;;22.30;72.00;;;;;;5020287;28;20205;-80
2023/06/22 09:19:34;;;;;;;7.57;6.38;;;22.40;71.60;;;;;;5053914;28;20153;-80
2023/06/22 09:22:00;;;;;;;7.35;6.10;;;22.40;71.60;;;;;;5036241;28;20161;-80
2023/06/22 09:24:26;;;;;;;6.75;6.07;;;22.40;71.60;;;;;;5020783;28;20186;-81
2023/06/22 09:26:52;;;;;;;6.70;6.00;;;22.40;71.50;;;;;;5054178;28;20162;-81
2023/06/22 09:29:18;;;;;;;8.02;6.40;;;22.40;71.30;;;;;;5036407;28;20166;-81
2023/06/22 09:31:44;;;;;;;6.90;5.95;;;22.40;71.10;;;;;;5020279;28;20268;-82
2023/06/22 09:34:10;;;;;;;7.00;6.28;;;22.50;70.90;;;;;;5037072;28;20162;-83
2023/06/22 09:36:36;;;;;;;8.85;5.93;;;22.40;70.90;;;;;;5037241;28;20192;-82
2023/06/22 09:39:06;;;;;;;6.47;5.75;;;22.40;70.80;;;;;;5036258;28;20654;-82
2023/06/22 09:41:32;;;;;;;6.90;5.82;;;22.50;70.70;;;;;;5037137;28;20185;-82
2023/06/22 09:43:58;;;;;;;7.90;6.22;;;22.50;70.60;;;;;;5035950;28;20621;-82
2023/06/22 09:46:25;;;;;;;8.20;5.88;;;22.50;70.70;;;;;;5036304;28;20228;-82
2023/06/22 09:48:51;;;;;;;6.68;5.97;;;22.50;70.70;;;;;;5036008;28;20580;-82
2023/06/22 09:51:21;;;;;;;7.30;5.85;;;22.50;70.20;;;;;;5053864;28;20223;-82
2023/06/22 09:53:47;;;;;;;6.18;5.57;;;22.50;70.30;;;;;;5012366;28;20195;-82
2023/06/22 09:56:15;;;;;;;6.20;5.60;;;22.50;70.10;;;;;;5010952;28;20187;-82
2023/06/22 09:58:42;;;;;;;6.60;5.68;;;22.50;70.00;;;;;;4995476;28;20175;-82
2023/06/22 10:01:08;;;;;;;6.50;5.53;;;22.50;69.80;;;;;;4978752;28;20669;-83
2023/06/22 10:03:34;;;;;;;6.20;5.47;;;22.50;69.80;;;;;;4995203;28;20693;-82
2023/06/22 10:06:00;;;;;;;6.20;5.55;;;22.50;69.70;;;;;;4978759;28;20160;-82
2023/06/22 10:08:27;;;;;;;6.20;5.60;;;22.60;69.20;;;;;;5011395;28;20175;-83
2023/06/22 10:10:57;;;;;;;5.75;5.20;;;22.60;69.40;;;;;;4994874;28;20206;-83
2023/06/22 10:13:27;;;;;;;6.22;5.60;;;22.50;69.40;;;;;;4978632;28;20183;-82
2023/06/22 10:15:57;;;;;;;6.00;5.40;;;22.50;69.40;;;;;;4979673;28;20214;-82
2023/06/22 10:18:26;;;;;;;5.90;5.30;;;22.50;69.60;;;;;;4996334;28;20210;-82
2023/06/22 10:20:56;;;;;;;6.00;5.40;;;22.50;69.20;;;;;;4980210;28;20597;-82
2023/06/22 10:23:25;;;;;;;5.72;5.13;;;22.60;69.00;;;;;;4996475;28;20670;-82
2023/06/22 10:25:51;;;;;;;5.88;5.15;;;22.60;69.00;;;;;;5001664;28;20660;-83
2023/06/22 10:28:19;;;;;;;6.25;5.60;;;22.60;68.70;;;;;;5034880;28;20346;-82
2023/06/22 10:30:48;;;;;;;6.10;5.30;;;22.60;68.80;;;;;;5017032;28;20641;-82
2023/06/22 10:33:17;;;;;;;6.18;5.57;;;22.60;68.80;;;;;;5032819;28;20187;-82
2023/06/22 10:35:46;;;;;;;6.00;5.40;;;22.60;68.80;;;;;;5034339;28;20197;-82
2023/06/22 10:38:14;;;;;;;6.32;5.70;;;22.60;68.70;;;;;;5017589;28;20266;-82
2023/06/22 10:40:42;;;;;;;6.63;5.28;;;22.60;68.70;;;;;;5017778;28;20182;-82
2023/06/22 10:43:10;;;;;;;5.93;5.32;;;22.60;68.40;;;;;;5034317;28;20276;-82
2023/06/22 10:45:39;;;;;;;5.35;4.85;;;22.70;68.30;;;;;;5034350;28;20186;-82
2023/06/22 10:48:04;;;;;;;5.63;4.80;;;22.60;68.10;;;;;;5034056;28;20572;-82
2023/06/22 10:50:34;;;;;;;5.38;4.88;;;22.70;68.00;;;;;;5034678;28;20170;-82
2023/06/22 10:53:02;;;;;;;6.07;5.30;;;22.70;68.00;;;;;;5034174;28;20525;-82
2023/06/22 10:55:30;;;;;;;5.85;5.25;;;22.70;67.80;;;;;;5034273;28;20189;-82
2023/06/22 10:57:56;;;;;;;5.32;4.72;;;22.70;67.70;;;;;;5017637;28;20213;-82
2023/06/22 11:00:23;;;;;;;5.68;5.07;;;22.70;67.70;;;;;;5034677;28;20159;-82
2023/06/22 11:02:51;;;;;;;5.05;4.40;;;22.70;67.80;;;;;;5017669;28;20181;-83
2023/06/22 11:05:18;;;;;;;5.82;4.45;;;22.80;67.70;;;;;;5035159;28;20158;-83
2023/06/22 11:07:46;;;;;;;5.20;4.70;;;22.80;67.60;;;;;;5033880;28;20273;-83
2023/06/22 11:10:13;;;;;;;9.07;4.63;;;22.80;67.20;;;;;;5037153;28;20523;-82
2023/06/22 11:12:42;;;;;;;5.03;4.53;;;22.90;67.20;;;;;;5037168;28;20189;-83
2023/06/22 11:15:09;;;;;;;4.88;4.38;;;22.80;66.90;;;;;;5021376;28;20272;-83
2023/06/22 11:17:37;;;;;;;4.72;4.32;;;22.90;66.90;;;;;;5021551;28;20240;-83
2023/06/22 11:20:10;;;;;;;4.68;4.28;;;22.90;66.80;;;;;;5037294;28;20205;-83
2023/06/22 11:22:39;;;;;;;4.72;4.22;;;22.90;66.70;;;;;;5021700;28;20182;-83
2023/06/22 11:25:05;;;;;;;5.28;4.78;;;22.80;66.80;;;;;;5005172;28;20178;-82
2023/06/22 11:27:32;;;;;;;5.03;4.53;;;22.90;66.70;;;;;;5054635;28;20158;-82
2023/06/22 11:29:59;;;;;;;4.88;4.38;;;22.90;66.60;;;;;;5018332;28;20189;-82
2023/06/22 11:32:26;;;;;;;4.85;4.28;;;22.90;66.60;;;;;;5003965;28;20193;-82
2023/06/22 11:34:54;;;;;;;5.18;4.65;;;22.90;66.50;;;;;;5037129;28;20185;-84
2023/06/22 11:37:21;;;;;;;5.05;4.55;;;22.90;66.50;;;;;;5037047;28;20684;-83
2023/06/22 11:39:48;;;;;;;4.60;4.20;;;22.90;66.40;;;;;;5036917;28;20265;-84
2023/06/22 11:42:15;;;;;;;4.85;4.30;;;22.90;66.30;;;;;;5020493;28;20186;-83
2023/06/22 11:44:43;;;;;;;5.47;3.95;;;22.90;66.10;;;;;;5036665;28;20222;-83
2023/06/22 11:47:09;;;;;;;5.93;4.50;;;22.90;66.20;;;;;;5003953;28;20251;-83
2023/06/22 11:49:36;;;;;;;6.15;4.20;;;22.90;66.10;;;;;;5037391;28;20170;-85
2023/06/22 11:52:03;;;;;;;6.75;4.18;;;22.90;66.10;;;;;;5020393;28;20640;-83
2023/06/22 11:54:29;;;;;;;5.32;4.50;;;22.90;66.00;;;;;;5027421;28;20205;-82
2023/06/22 11:56:55;;;;;;;4.63;4.20;;;22.90;65.90;;;;;;5048175;28;20209;-82
2023/06/22 11:59:24;;;;;;;4.70;4.18;;;23.00;65.90;;;;;;5057535;28;20174;-84
2023/06/22 12:01:55;;;;;;;4.75;4.25;;;23.00;65.90;;;;;;5040809;28;20162;-85
2023/06/22 12:04:21;;;;;;;4.53;4.05;;;23.00;65.80;;;;;;5023907;28;20189;-83
2023/06/22 12:06:47;;;;;;;5.18;4.40;;;23.00;65.70;;;;;;5040639;28;20172;-83
2023/06/22 12:09:14;;;;;;;5.70;4.15;;;23.00;65.60;;;;;;5075071;28;20465;-83
2023/06/22 12:11:40;;;;;;;4.43;4.00;;;23.00;65.50;;;;;;5040724;28;20165;-82
2023/06/22 12:14:06;;;;;;;4.45;4.05;;;22.90;65.40;;;;;;5057346;28;20573;-82
2023/06/22 12:16:32;;;;;;;4.80;4.13;;;23.00;65.40;;;;;;5074752;28;20189;-82
2023/06/22 12:18:58;;;;;;;6.30;3.95;;;23.00;65.40;;;;;;5074515;28;20173;-83
2023/06/22 12:21:24;;;;;;;5.03;3.70;;;23.00;65.50;;;;;;5039299;28;20171;-83
2023/06/22 12:23:49;;;;;;;4.70;3.97;;;23.10;65.20;;;;;;5029678;28;20283;-83
2023/06/22 12:26:15;;;;;;;4.32;3.92;;;23.10;65.10;;;;;;5034686;28;20593;-82
2023/06/22 12:28:41;;;;;;;5.00;3.78;;;23.10;65.10;;;;;;5034600;28;20151;-83
2023/06/22 12:31:09;;;;;;;4.65;4.13;;;23.00;65.00;;;;;;5043421;28;20535;-83
2023/06/22 12:33:35;;;;;;;4.25;3.85;;;23.10;65.00;;;;;;5020662;28;20168;-83